Time;durP1;ratioP1;P1;durP2;ratioP2;P2;SDS_P1;SDS_P2;PMS_P1;PMS_P2;Temp;Humidity;BMP_temperature;BMP_pressure;BME280_temperature;BME280_humidity;BME280_pressure;Samples;Min_cycle;Max_cycle;Signal;HPM_P1;HPM_P2
2023/07/01 00:00:07;;;;;;;6.38;1.27;;;18.30;78.30;;;;;;4916676;28;90131;-78
2023/07/01 00:02:33;;;;;;;4.88;1.50;;;18.30;78.10;;;;;;4916970;28;87771;-77
2023/07/01 00:04:59;;;;;;;4.10;1.48;;;18.30;78.80;;;;;;4917100;28;87568;-77
2023/07/01 00:07:24;;;;;;;7.22;1.90;;;18.30;78.60;;;;;;4917039;28;88152;-78
2023/07/01 00:09:50;;;;;;;8.48;1.73;;;18.30;78.20;;;;;;4900129;28;90574;-77
2023/07/01 00:12:16;;;;;;;4.15;1.50;;;18.20;78.60;;;;;;4918149;28;87776;-77
2023/07/01 00:14:41;;;;;;;5.75;1.55;;;18.20;78.20;;;;;;4917810;28;87117;-77
2023/07/01 00:17:09;;;;;;;6.57;2.00;;;18.20;78.30;;;;;;4917311;28;88522;-77
2023/07/01 00:19:35;;;;;;;6.13;1.63;;;18.20;78.40;;;;;;4916822;28;88015;-78
2023/07/01 00:22:02;;;;;;;6.82;1.48;;;18.20;78.60;;;;;;4917512;28;88404;-77
2023/07/01 00:24:27;;;;;;;7.47;1.60;;;18.20;77.90;;;;;;4917613;28;87568;-77
2023/07/01 00:26:53;;;;;;;4.93;1.50;;;18.20;78.10;;;;;;4917072;28;88869;-78
2023/07/01 00:29:18;;;;;;;6.90;1.73;;;18.20;78.40;;;;;;4916645;28;87919;-77
2023/07/01 00:31:44;;;;;;;4.47;1.55;;;18.20;77.60;;;;;;4916124;28;87582;-78
2023/07/01 00:34:10;;;;;;;7.88;1.50;;;18.20;78.60;;;;;;4899971;28;96206;-78
2023/07/01 00:36:35;;;;;;;3.35;1.70;;;18.20;78.50;;;;;;4917268;28;88697;-78
2023/07/01 00:39:03;;;;;;;7.68;2.15;;;18.20;78.60;;;;;;4918141;28;88853;-76
2023/07/01 00:41:29;;;;;;;5.68;1.77;;;18.20;78.40;;;;;;4917016;28;87577;-77
2023/07/01 00:43:54;;;;;;;3.28;1.30;;;18.20;78.40;;;;;;4916649;28;88247;-77
2023/07/01 00:46:21;;;;;;;6.43;2.15;;;18.20;78.40;;;;;;4916705;28;89582;-77
2023/07/01 00:48:47;;;;;;;7.88;1.75;;;18.20;78.60;;;;;;4916268;28;89548;-77
2023/07/01 00:51:13;;;;;;;4.43;1.35;;;18.20;78.50;;;;;;4918577;28;87066;-78
2023/07/01 00:53:40;;;;;;;5.65;1.52;;;18.20;78.60;;;;;;4917291;28;88107;-77
2023/07/01 00:56:06;;;;;;;4.93;1.60;;;18.20;78.80;;;;;;4917122;28;88247;-77
2023/07/01 00:58:33;;;;;;;3.60;1.48;;;18.20;79.10;;;;;;4917262;28;89133;-77
2023/07/01 01:01:02;;;;;;;5.03;1.58;;;18.20;79.20;;;;;;4917506;28;87386;-77
2023/07/01 01:03:39;;;;;;;7.15;1.90;;;18.20;79.00;;;;;;4917364;28;87005;-77
2023/07/01 01:06:36;;;;;;;4.45;1.70;;;18.20;79.60;;;;;;4916781;28;93119;-78
2023/07/01 01:09:03;;;;;;;3.05;1.58;;;18.20;79.40;;;;;;4917163;28;93598;-77
2023/07/01 01:11:31;;;;;;;7.32;2.10;;;18.10;79.40;;;;;;4916877;28;88617;-77
2023/07/01 01:13:59;;;;;;;6.40;1.98;;;18.20;79.60;;;;;;4916825;28;87868;-76
2023/07/01 01:16:26;;;;;;;6.32;2.13;;;18.20;80.30;;;;;;4916347;28;89229;-78
2023/07/01 01:18:53;;;;;;;2.25;1.52;;;18.20;80.40;;;;;;4916879;28;87598;-76
2023/07/01 01:21:21;;;;;;;4.43;1.90;;;18.10;80.00;;;;;;4918058;28;87698;-77
2023/07/01 01:24:00;;;;;;;4.65;2.08;;;18.10;79.80;;;;;;4916813;28;87732;-77
2023/07/01 01:26:32;;;;;;;4.60;1.77;;;18.20;80.20;;;;;;4917514;28;87978;-77
2023/07/01 01:28:57;;;;;;;10.35;1.75;;;18.20;80.20;;;;;;4917687;28;88242;-77
2023/07/01 01:31:23;;;;;;;11.50;2.25;;;18.10;79.70;;;;;;4916758;28;87324;-77
2023/07/01 01:33:48;;;;;;;4.07;1.80;;;18.10;80.00;;;;;;4917040;28;87438;-78
2023/07/01 01:36:36;;;;;;;8.38;1.70;;;18.10;79.50;;;;;;4917978;28;89064;-78
2023/07/01 01:39:05;;;;;;;5.93;2.10;;;18.10;79.80;;;;;;4917669;28;93376;-80
2023/07/01 01:41:43;;;;;;;5.25;2.08;;;18.10;79.40;;;;;;4916397;28;87585;-77
2023/07/01 01:44:16;;;;;;;5.00;1.83;;;18.10;79.80;;;;;;4919420;28;87437;-77
2023/07/01 01:46:43;;;;;;;4.70;2.10;;;18.10;79.40;;;;;;4920482;28;88719;-77
2023/07/01 01:49:11;;;;;;;3.92;1.70;;;18.10;79.20;;;;;;4920370;28;87564;-76
2023/07/01 01:51:39;;;;;;;7.70;2.10;;;18.10;78.40;;;;;;4920918;28;87690;-76
2023/07/01 01:54:06;;;;;;;4.70;1.85;;;18.10;78.00;;;;;;4921859;28;87301;-77
2023/07/01 01:56:33;;;;;;;5.10;1.73;;;18.10;78.10;;;;;;4920274;28;88847;-77
2023/07/01 01:58:59;;;;;;;6.95;1.90;;;18.10;77.80;;;;;;4919843;28;87632;-77
2023/07/01 02:01:25;;;;;;;8.45;2.20;;;18.10;77.90;;;;;;4918897;28;88626;-78
2023/07/01 02:03:50;;;;;;;5.65;2.80;;;18.10;78.20;;;;;;4919937;28;87477;-76
2023/07/01 02:06:16;;;;;;;8.20;2.40;;;18.10;78.30;;;;;;4920913;28;88717;-77
2023/07/01 02:08:42;;;;;;;4.68;2.17;;;18.10;80.00;;;;;;4921698;28;88550;-77
2023/07/01 02:11:07;;;;;;;4.85;2.08;;;18.10;79.80;;;;;;4920454;28;87460;-77
2023/07/01 02:13:33;;;;;;;5.15;2.20;;;18.10;79.10;;;;;;4920329;28;87614;-79
2023/07/01 02:15:59;;;;;;;4.60;2.25;;;18.10;78.60;;;;;;4920836;28;88494;-76
2023/07/01 02:18:25;;;;;;;3.20;1.50;;;18.00;78.40;;;;;;4922268;28;88282;-77
2023/07/01 02:20:50;;;;;;;4.78;2.13;;;18.00;78.40;;;;;;4921757;28;87847;-78
2023/07/01 02:23:16;;;;;;;5.88;1.90;;;18.00;77.80;;;;;;4920757;28;87695;-79
2023/07/01 02:25:42;;;;;;;5.97;2.05;;;18.00;77.90;;;;;;4919609;28;88690;-78
2023/07/01 02:28:08;;;;;;;3.83;1.73;;;18.00;78.10;;;;;;4920026;28;88889;-78
2023/07/01 02:30:35;;;;;;;7.28;2.42;;;18.10;78.10;;;;;;4919908;28;87195;-77
2023/07/01 02:33:01;;;;;;;4.55;1.95;;;18.10;78.80;;;;;;4919779;28;87248;-78
2023/07/01 02:35:27;;;;;;;3.30;1.70;;;18.10;78.10;;;;;;4918991;28;88963;-78
2023/07/01 02:37:52;;;;;;;6.70;2.40;;;18.10;78.40;;;;;;4918438;28;87758;-78
2023/07/01 02:40:18;;;;;;;10.43;2.60;;;18.10;78.20;;;;;;4918728;28;87594;-78
2023/07/01 02:42:44;;;;;;;6.18;2.10;;;18.00;77.40;;;;;;4918584;28;87635;-78
2023/07/01 02:45:10;;;;;;;6.28;1.50;;;18.10;77.90;;;;;;4918572;28;88253;-78
2023/07/01 02:47:35;;;;;;;3.95;2.28;;;18.00;77.30;;;;;;4918125;28;89156;-78
2023/07/01 02:50:01;;;;;;;4.03;2.10;;;18.10;77.50;;;;;;4917554;28;88707;-78
2023/07/01 02:52:26;;;;;;;9.18;2.50;;;18.00;77.80;;;;;;4917997;28;87825;-79
2023/07/01 02:54:52;;;;;;;3.97;2.30;;;18.10;77.40;;;;;;4917363;28;88478;-78
2023/07/01 02:57:18;;;;;;;3.50;2.15;;;18.10;77.40;;;;;;4918370;28;89303;-78
2023/07/01 02:59:43;;;;;;;5.57;2.15;;;18.10;77.50;;;;;;4917663;28;87605;-78
2023/07/01 03:02:09;;;;;;;4.07;2.20;;;18.10;77.70;;;;;;4917620;28;87455;-78
2023/07/01 03:04:35;;;;;;;8.15;2.58;;;18.10;77.90;;;;;;4917946;28;88090;-78
2023/07/01 03:07:01;;;;;;;6.28;2.42;;;18.10;78.00;;;;;;4918260;28;87665;-78
2023/07/01 03:09:27;;;;;;;3.13;1.75;;;18.10;78.00;;;;;;4919257;28;87476;-78
2023/07/01 03:11:53;;;;;;;4.15;2.00;;;18.10;78.20;;;;;;4917603;28;87794;-78
2023/07/01 03:14:20;;;;;;;4.35;1.98;;;18.20;78.40;;;;;;4916786;28;89107;-77
2023/07/01 03:16:46;;;;;;;6.43;1.95;;;18.10;78.70;;;;;;4917730;28;89939;-78
2023/07/01 03:19:12;;;;;;;4.13;1.85;;;18.10;78.50;;;;;;4917242;28;87616;-77
2023/07/01 03:21:38;;;;;;;5.68;1.83;;;18.10;79.10;;;;;;4898558;28;91017;-77
2023/07/01 03:24:04;;;;;;;8.50;2.05;;;18.00;79.30;;;;;;4917968;28;89503;-76
2023/07/01 03:26:29;;;;;;;4.90;1.52;;;18.00;79.60;;;;;;4916831;28;89477;-77
2023/07/01 03:28:55;;;;;;;4.28;1.63;;;18.00;81.00;;;;;;4917757;28;87579;-78
2023/07/01 03:31:21;;;;;;;3.45;1.67;;;18.00;82.70;;;;;;4917260;28;87774;-78
2023/07/01 03:33:47;;;;;;;4.40;1.98;;;18.00;84.20;;;;;;4917628;28;89911;-77
2023/07/01 03:36:12;;;;;;;6.20;1.58;;;17.90;84.80;;;;;;4917991;28;88874;-77
2023/07/01 03:38:38;;;;;;;3.97;1.40;;;17.80;86.60;;;;;;4917172;28;88778;-77
2023/07/01 03:41:06;;;;;;;2.47;1.35;;;17.70;88.90;;;;;;4916898;28;87837;-77
2023/07/01 03:43:32;;;;;;;3.25;1.05;;;17.60;90.20;;;;;;4917292;28;88419;-77
2023/07/01 03:45:57;;;;;;;4.40;1.50;;;17.50;90.90;;;;;;4916958;28;87759;-77
2023/07/01 03:48:23;;;;;;;3.85;1.40;;;17.40;91.20;;;;;;4918256;28;87616;-78
2023/07/01 03:50:49;;;;;;;4.20;1.40;;;17.30;91.80;;;;;;4916802;28;87788;-78
2023/07/01 03:53:14;;;;;;;4.60;1.52;;;17.30;92.30;;;;;;4917081;28;88282;-78
2023/07/01 03:55:40;;;;;;;4.95;1.77;;;17.20;92.30;;;;;;4917256;28;87801;-77
2023/07/01 03:58:05;;;;;;;2.40;1.50;;;17.20;92.80;;;;;;4917527;28;87965;-79
2023/07/01 04:00:31;;;;;;;8.27;2.03;;;17.10;93.20;;;;;;4916850;28;87539;-76
2023/07/01 04:03:05;;;;;;;5.97;1.70;;;17.00;93.50;;;;;;4917032;28;89555;-79
2023/07/01 04:05:35;;;;;;;4.97;1.50;;;16.90;93.80;;;;;;4898421;28;93083;-79
2023/07/01 04:08:01;;;;;;;6.78;2.25;;;16.90;94.10;;;;;;4917017;28;87724;-79
2023/07/01 04:10:26;;;;;;;2.95;1.67;;;16.80;94.60;;;;;;4915673;28;90950;-76
2023/07/01 04:12:52;;;;;;;7.00;1.70;;;16.70;94.70;;;;;;4915787;28;88895;-75
2023/07/01 04:15:18;;;;;;;5.70;1.70;;;16.60;95.10;;;;;;4916966;28;88463;-76
2023/07/01 04:17:46;;;;;;;4.50;1.60;;;16.60;95.10;;;;;;4916630;28;87944;-76
2023/07/01 04:20:13;;;;;;;4.57;1.75;;;16.50;95.30;;;;;;4917336;28;87210;-76
2023/07/01 04:22:39;;;;;;;4.53;1.95;;;16.50;95.40;;;;;;4916060;28;89086;-77
2023/07/01 04:25:06;;;;;;;6.43;1.60;;;16.50;95.70;;;;;;4915919;28;88504;-76
2023/07/01 04:27:32;;;;;;;6.25;1.73;;;16.40;95.60;;;;;;4916034;28;88474;-76
2023/07/01 04:29:57;;;;;;;3.15;1.80;;;16.40;95.80;;;;;;4899742;28;90849;-76
2023/07/01 04:32:23;;;;;;;11.90;2.05;;;16.40;95.80;;;;;;4915658;28;89454;-76
2023/07/01 04:34:49;;;;;;;3.22;1.85;;;16.40;95.80;;;;;;4915671;28;88732;-76
2023/07/01 04:37:15;;;;;;;3.63;1.60;;;16.40;96.10;;;;;;4915651;28;87492;-76
2023/07/01 04:39:41;;;;;;;4.15;1.60;;;16.40;96.40;;;;;;4915730;28;88050;-77
2023/07/01 04:42:07;;;;;;;6.45;1.85;;;16.40;96.20;;;;;;4916970;28;88602;-76
2023/07/01 04:44:33;;;;;;;3.33;1.55;;;16.40;96.20;;;;;;4916091;28;88489;-76
2023/07/01 04:46:59;;;;;;;5.03;1.88;;;16.40;96.30;;;;;;4915847;28;87491;-78
2023/07/01 04:49:25;;;;;;;3.47;1.65;;;16.30;96.30;;;;;;4915426;28;88484;-78
2023/07/01 04:51:52;;;;;;;4.35;1.60;;;16.40;96.30;;;;;;4914539;28;90829;-79
2023/07/01 04:54:17;;;;;;;7.78;1.42;;;16.40;96.30;;;;;;4916071;28;89420;-79
2023/07/01 04:56:43;;;;;;;3.03;1.33;;;16.30;96.50;;;;;;4915794;28;87625;-78
2023/07/01 04:59:08;;;;;;;4.82;1.70;;;16.30;96.60;;;;;;4915621;28;87922;-79
2023/07/01 05:01:34;;;;;;;4.35;1.67;;;16.30;96.80;;;;;;4915369;28;88796;-79
2023/07/01 05:04:00;;;;;;;7.80;1.98;;;16.30;96.70;;;;;;4915528;28;95260;-79
2023/07/01 05:06:25;;;;;;;1.65;1.33;;;16.30;97.00;;;;;;4916352;28;87484;-79
2023/07/01 05:08:51;;;;;;;7.32;1.67;;;16.30;97.20;;;;;;4916779;28;87120;-79
2023/07/01 05:11:17;;;;;;;1.92;1.00;;;16.30;97.10;;;;;;4915331;28;88597;-79
2023/07/01 05:13:44;;;;;;;1.75;1.23;;;16.30;97.20;;;;;;4915092;28;88155;-78
2023/07/01 05:16:10;;;;;;;3.13;1.00;;;16.30;97.30;;;;;;4915772;28;89042;-79
2023/07/01 05:18:35;;;;;;;5.50;1.50;;;16.30;97.30;;;;;;4914889;28;87526;-78
2023/07/01 05:21:01;;;;;;;3.97;1.30;;;16.30;97.40;;;;;;4916808;28;89297;-79
2023/07/01 05:23:27;;;;;;;4.50;1.35;;;16.30;97.50;;;;;;4915774;28;88134;-77
2023/07/01 05:25:52;;;;;;;3.15;1.20;;;16.30;97.50;;;;;;4915286;28;87770;-78
2023/07/01 08:30:14;;;;;;;1.75;0.30;;;17.70;98.30;;;;;;4752618;23;88765;-79
2023/07/01 08:32:41;;;;;;;0.85;0.30;;;17.70;97.90;;;;;;4856998;28;88585;-79
2023/07/01 08:35:07;;;;;;;0.60;0.50;;;17.70;98.00;;;;;;4809339;28;88007;-78
2023/07/01 08:37:33;;;;;;;0.60;0.57;;;17.70;98.00;;;;;;4861023;28;88094;-79
2023/07/01 08:39:59;;;;;;;1.25;0.50;;;17.70;97.90;;;;;;4859778;28;90238;-79
2023/07/01 08:42:35;;;;;;;2.28;0.60;;;17.70;98.10;;;;;;4862304;28;88487;-79
2023/07/01 08:45:02;;;;;;;0.55;0.50;;;17.70;98.00;;;;;;4862458;29;87368;-80
2023/07/01 08:47:29;;;;;;;0.43;0.40;;;17.70;98.20;;;;;;4860506;28;87196;-80
2023/07/01 08:49:58;;;;;;;1.52;0.68;;;17.70;98.30;;;;;;4858749;28;91346;-79
2023/07/01 08:52:28;;;;;;;1.00;0.55;;;17.70;98.00;;;;;;4873963;28;91286;-80
2023/07/01 08:54:54;;;;;;;2.15;0.60;;;17.70;98.10;;;;;;4862407;28;88775;-80
2023/07/01 08:57:20;;;;;;;0.30;0.30;;;17.70;98.30;;;;;;4877048;28;90915;-80
2023/07/01 08:59:47;;;;;;;0.40;0.30;;;17.80;98.30;;;;;;4862932;28;88562;-81
2023/07/01 09:02:15;;;;;;;2.97;0.40;;;17.80;97.70;;;;;;4868323;29;87520;-81
2023/07/01 09:04:41;;;;;;;0.47;0.40;;;17.90;97.90;;;;;;4869934;28;87223;-80
2023/07/01 09:07:10;;;;;;;1.83;0.30;;;17.90;98.00;;;;;;4881961;28;89819;-81
2023/07/01 09:09:38;;;;;;;0.63;0.25;;;18.00;98.00;;;;;;4886341;28;89011;-80
2023/07/01 09:12:04;;;;;;;2.55;0.30;;;18.00;97.50;;;;;;4883013;28;89082;-81
2023/07/01 09:15:00;;;;;;;3.72;0.40;;;18.00;97.60;;;;;;4869542;28;91379;-80
2023/07/01 09:17:28;;;;;;;0.30;0.30;;;18.10;97.60;;;;;;4883945;28;90054;-81
2023/07/01 09:19:57;;;;;;;0.75;0.20;;;18.20;97.50;;;;;;4868073;29;90339;-81
2023/07/01 09:22:22;;;;;;;0.40;0.20;;;18.20;96.90;;;;;;4871048;28;87241;-81
2023/07/01 09:24:48;;;;;;;0.35;0.25;;;18.20;96.60;;;;;;4871614;28;87119;-81
2023/07/01 09:27:14;;;;;;;0.43;0.22;;;18.20;96.90;;;;;;4870548;29;89350;-81
2023/07/01 09:29:59;;;;;;;0.30;0.30;;;18.20;96.90;;;;;;4871778;28;91274;-82
2023/07/01 09:32:29;;;;;;;0.35;0.30;;;18.30;96.90;;;;;;4869099;29;89626;-82
2023/07/01 09:34:57;;;;;;;0.60;0.30;;;18.30;97.00;;;;;;4874894;28;87558;-82
2023/07/01 09:37:23;;;;;;;1.20;0.30;;;18.30;96.90;;;;;;4888201;28;89266;-82
2023/07/01 09:39:49;;;;;;;1.20;0.30;;;18.30;96.90;;;;;;4879490;28;91536;-82
2023/07/01 09:42:18;;;;;;;0.45;0.40;;;18.30;96.80;;;;;;4887262;28;89431;-82
2023/07/01 09:45:07;;;;;;;1.70;0.38;;;18.40;97.30;;;;;;4879785;28;88048;-83
2023/07/01 09:47:34;;;;;;;2.53;0.60;;;18.50;97.40;;;;;;4872323;28;89842;-82
2023/07/01 09:50:02;;;;;;;1.48;0.32;;;18.60;97.00;;;;;;4874369;28;93492;-83
2023/07/01 09:52:32;;;;;;;2.25;0.40;;;18.70;96.50;;;;;;4872738;28;87456;-82
2023/07/01 09:55:01;;;;;;;2.28;0.80;;;18.80;97.10;;;;;;4876230;29;86973;-83
2023/07/01 09:57:27;;;;;;;0.40;0.40;;;19.00;96.10;;;;;;4874190;28;87966;-82
2023/07/01 09:59:53;;;;;;;0.98;0.50;;;19.00;96.50;;;;;;4857598;28;89094;-82
2023/07/01 10:02:19;;;;;;;1.00;0.43;;;19.10;95.70;;;;;;4872019;28;88031;-81
2023/07/01 10:04:46;;;;;;;0.65;0.45;;;19.20;95.90;;;;;;4868240;28;87321;-81
2023/07/01 10:07:12;;;;;;;0.90;0.50;;;19.20;95.20;;;;;;4866095;28;87335;-81
2023/07/01 10:09:47;;;;;;;0.50;0.43;;;19.20;95.20;;;;;;4876051;28;92598;-82
2023/07/01 10:12:17;;;;;;;1.20;0.50;;;19.30;95.30;;;;;;4869087;28;88234;-81
2023/07/01 10:14:48;;;;;;;0.50;0.50;;;19.30;95.30;;;;;;4866815;28;87824;-82
2023/07/01 10:17:15;;;;;;;0.63;0.40;;;19.40;95.60;;;;;;4869371;28;89738;-82
2023/07/01 10:19:46;;;;;;;1.65;0.40;;;19.50;95.60;;;;;;4873847;28;90487;-80
2023/07/01 10:22:32;;;;;;;0.40;0.40;;;19.60;95.20;;;;;;4867594;29;88819;-82
2023/07/01 10:25:06;;;;;;;0.45;0.30;;;19.70;94.90;;;;;;4869892;29;87852;-81
2023/07/01 10:27:41;;;;;;;0.85;0.50;;;19.70;95.00;;;;;;4855055;28;88765;-82
2023/07/01 10:30:13;;;;;;;0.68;0.57;;;19.80;95.90;;;;;;4866946;29;90798;-80
2023/07/01 10:32:39;;;;;;;0.93;0.80;;;19.90;94.90;;;;;;4882382;28;90255;-82
2023/07/01 10:35:05;;;;;;;2.67;0.60;;;20.00;95.00;;;;;;4868976;29;97284;-81
2023/07/01 10:37:34;;;;;;;1.45;0.68;;;20.00;95.10;;;;;;4868316;28;88958;-82
2023/07/01 10:40:07;;;;;;;0.70;0.55;;;20.00;94.90;;;;;;4869087;28;88766;-81
2023/07/01 10:42:41;;;;;;;1.00;0.60;;;19.90;95.20;;;;;;4867607;28;89748;-80
2023/07/01 10:45:13;;;;;;;4.53;0.90;;;19.90;95.10;;;;;;4880742;28;86992;-81
2023/07/01 10:48:02;;;;;;;1.52;0.93;;;19.90;95.40;;;;;;4869631;28;87130;-81
2023/07/01 10:50:29;;;;;;;1.02;0.70;;;19.80;95.70;;;;;;4861036;29;90681;-82
2023/07/01 10:52:58;;;;;;;1.50;0.80;;;19.70;95.80;;;;;;4859913;28;91049;-82
2023/07/01 10:55:33;;;;;;;1.00;0.70;;;19.70;96.10;;;;;;4868842;29;87199;-82
2023/07/01 10:58:24;;;;;;;1.10;0.80;;;19.70;96.30;;;;;;4864417;28;88082;-80
2023/07/01 11:00:57;;;;;;;0.98;0.80;;;19.70;96.10;;;;;;4861568;28;89377;-81
2023/07/01 11:03:35;;;;;;;2.00;0.90;;;19.80;96.60;;;;;;4861003;28;91234;-79
2023/07/01 11:06:04;;;;;;;0.70;0.70;;;19.80;96.40;;;;;;4861639;28;87266;-81
2023/07/01 11:08:32;;;;;;;2.65;0.80;;;19.90;96.20;;;;;;4862096;28;87354;-80
2023/07/01 11:10:58;;;;;;;0.88;0.88;;;20.00;96.00;;;;;;4878273;28;88246;-81
2023/07/01 11:16:09;;;;;;;1.65;0.90;;;20.30;96.40;;;;;;4846993;29;87165;-81
2023/07/01 11:18:49;;;;;;;0.98;0.43;;;20.50;95.60;;;;;;4838027;29;88152;-81
2023/07/01 11:21:26;;;;;;;3.33;0.77;;;20.80;96.10;;;;;;4829183;29;90518;-81
2023/07/01 11:23:53;;;;;;;1.38;0.50;;;21.10;96.00;;;;;;4843685;29;91078;-82
2023/07/01 11:27:04;;;;;;;2.03;0.60;;;21.40;94.20;;;;;;4861087;29;88695;-81
2023/07/01 11:29:31;;;;;;;0.70;0.65;;;21.50;91.50;;;;;;4865820;28;89770;-81
2023/07/01 11:32:12;;;;;;;1.58;0.60;;;21.60;90.50;;;;;;4842578;29;89752;-80
2023/07/01 11:34:39;;;;;;;2.35;0.75;;;21.60;91.20;;;;;;4862325;28;88021;-81
2023/07/01 11:37:05;;;;;;;1.45;0.73;;;21.70;90.30;;;;;;4846392;29;87334;-81
2023/07/01 11:39:31;;;;;;;2.25;0.93;;;21.70;87.00;;;;;;4857555;28;87630;-81
2023/07/01 11:42:03;;;;;;;3.70;1.20;;;21.90;87.90;;;;;;4849028;29;89510;-80
2023/07/01 11:44:32;;;;;;;0.93;0.57;;;22.00;87.50;;;;;;4857837;28;87653;-82
2023/07/01 11:46:58;;;;;;;3.13;1.27;;;22.20;85.90;;;;;;4866371;29;87238;-80
2023/07/01 11:49:30;;;;;;;1.98;0.90;;;22.40;87.00;;;;;;4866897;28;87216;-81
2023/07/01 11:51:56;;;;;;;2.88;1.20;;;22.60;82.60;;;;;;4847301;29;90018;-82
2023/07/01 11:54:24;;;;;;;2.72;1.00;;;22.80;83.40;;;;;;4848150;29;88372;-80
2023/07/01 11:56:53;;;;;;;3.67;1.00;;;23.00;80.10;;;;;;4864893;28;87136;-81
2023/07/01 11:59:33;;;;;;;2.72;1.00;;;23.20;81.80;;;;;;4851854;29;87290;-80
2023/07/01 12:01:59;;;;;;;1.90;0.90;;;23.40;78.90;;;;;;4852100;29;89765;-81
2023/07/01 12:04:26;;;;;;;2.35;0.80;;;23.60;81.10;;;;;;4865051;28;90359;-80
2023/07/01 12:07:11;;;;;;;1.40;0.70;;;23.80;79.00;;;;;;4868086;28;87485;-80
2023/07/01 12:09:43;;;;;;;3.78;0.98;;;24.00;76.80;;;;;;4861922;29;87543;-82
2023/07/01 12:12:16;;;;;;;3.28;0.98;;;24.00;74.80;;;;;;4846286;29;90613;-82
2023/07/01 12:14:43;;;;;;;1.60;0.80;;;23.90;75.50;;;;;;4838830;29;89379;-81
2023/07/01 12:17:28;;;;;;;2.83;0.73;;;23.70;75.20;;;;;;4846824;29;88092;-80
2023/07/01 12:19:54;;;;;;;3.15;1.10;;;23.70;78.10;;;;;;4867454;29;87642;-81
2023/07/01 12:22:19;;;;;;;3.15;1.10;;;23.90;78.10;;;;;;4872076;28;89721;-81
2023/07/01 12:24:53;;;;;;;3.90;0.90;;;24.10;77.50;;;;;;4870009;29;87048;-81
2023/07/01 12:27:19;;;;;;;2.75;0.63;;;24.20;74.90;;;;;;4871990;29;87756;-81
2023/07/01 12:29:44;;;;;;;2.47;0.65;;;24.20;73.80;;;;;;4854207;29;87618;-81
2023/07/01 12:32:10;;;;;;;4.00;0.90;;;24.10;73.90;;;;;;4847435;29;93237;-81
2023/07/01 12:34:36;;;;;;;4.78;1.00;;;24.10;73.90;;;;;;4846899;29;89882;-82
2023/07/01 12:37:02;;;;;;;3.42;0.93;;;24.10;74.80;;;;;;4873853;29;86936;-79
2023/07/01 12:39:28;;;;;;;1.80;0.73;;;24.10;73.90;;;;;;4867535;28;88304;-84
2023/07/01 12:41:55;;;;;;;1.33;0.55;;;24.10;74.10;;;;;;4866821;28;89238;-82
2023/07/01 12:44:21;;;;;;;2.08;0.60;;;24.10;73.00;;;;;;4870375;28;91182;-81
2023/07/01 12:46:46;;;;;;;3.25;0.63;;;24.10;74.30;;;;;;4838823;29;86982;-81
2023/07/01 12:49:13;;;;;;;7.78;1.08;;;24.20;73.30;;;;;;4867092;29;89535;-81
2023/07/01 12:51:40;;;;;;;3.95;0.80;;;24.30;72.70;;;;;;4865285;28;88174;-82
2023/07/01 12:54:06;;;;;;;2.70;0.40;;;24.50;70.30;;;;;;4847132;29;89382;-81
2023/07/01 12:56:32;;;;;;;4.72;0.88;;;24.30;70.50;;;;;;4851894;29;87505;-80
2023/07/01 12:58:58;;;;;;;1.05;0.40;;;24.20;69.80;;;;;;4867027;29;87224;-81
2023/07/01 13:01:23;;;;;;;0.88;0.40;;;24.10;70.80;;;;;;4858747;29;87026;-80
2023/07/01 13:03:49;;;;;;;2.38;0.40;;;24.00;70.80;;;;;;4861512;29;87702;-81
2023/07/01 13:06:33;;;;;;;0.77;0.40;;;24.10;72.10;;;;;;4850292;29;88583;-82
2023/07/01 13:09:03;;;;;;;4.50;0.75;;;24.20;71.90;;;;;;4864391;28;91572;-81
2023/07/01 13:11:36;;;;;;;3.40;0.85;;;24.30;71.40;;;;;;4867117;29;90897;-81
2023/07/01 13:14:14;;;;;;;2.40;0.70;;;24.30;71.80;;;;;;4872889;29;87583;-81
2023/07/01 13:16:41;;;;;;;2.65;0.60;;;24.30;71.60;;;;;;4864363;29;87289;-83
2023/07/01 13:19:10;;;;;;;1.70;0.50;;;24.30;72.20;;;;;;4867173;28;87479;-80
2023/07/01 13:21:46;;;;;;;1.00;0.40;;;24.30;71.20;;;;;;4863611;29;87552;-80
2023/07/01 13:24:13;;;;;;;1.10;0.38;;;24.30;70.90;;;;;;4868722;29;88900;-81
2023/07/01 13:26:39;;;;;;;1.63;0.65;;;24.20;68.80;;;;;;4863631;29;87825;-81
2023/07/01 13:29:17;;;;;;;2.25;0.52;;;24.10;70.00;;;;;;4847080;29;93289;-80
2023/07/01 13:32:06;;;;;;;2.53;0.40;;;23.90;70.80;;;;;;4866456;29;90429;-80
2023/07/01 13:34:43;;;;;;;0.82;0.30;;;23.90;71.30;;;;;;4868677;29;89615;-80
2023/07/01 13:37:12;;;;;;;1.58;0.32;;;23.90;71.40;;;;;;4863966;29;87132;-81
2023/07/01 13:39:49;;;;;;;3.13;0.30;;;23.80;70.30;;;;;;4854376;29;89127;-79
2023/07/01 13:42:26;;;;;;;1.83;0.43;;;23.70;71.00;;;;;;4870122;29;88232;-80
2023/07/01 13:44:53;;;;;;;1.90;0.30;;;23.60;72.30;;;;;;4873333;28;89878;-81
2023/07/01 13:47:46;;;;;;;1.38;0.47;;;23.50;70.90;;;;;;4848334;28;87969;-79
2023/07/01 13:50:23;;;;;;;1.20;0.35;;;23.40;71.10;;;;;;4859356;28;86762;-81
2023/07/01 13:52:50;;;;;;;0.63;0.30;;;23.20;70.10;;;;;;4859154;28;87784;-80
2023/07/01 13:55:21;;;;;;;0.93;0.32;;;23.10;71.70;;;;;;4844888;29;90646;-80
2023/07/01 13:57:49;;;;;;;0.80;0.30;;;23.00;71.80;;;;;;4862522;28;88053;-81
2023/07/01 14:00:40;;;;;;;1.05;0.30;;;23.00;71.10;;;;;;4855354;29;88432;-81
2023/07/01 14:03:21;;;;;;;1.08;0.40;;;23.00;72.40;;;;;;4848722;29;94914;-82
2023/07/01 14:05:55;;;;;;;0.82;0.30;;;23.10;72.50;;;;;;4850549;29;89288;-81
2023/07/01 14:08:23;;;;;;;1.90;0.38;;;23.20;72.60;;;;;;4868570;29;87468;-80
2023/07/01 14:10:50;;;;;;;1.55;0.40;;;23.20;74.10;;;;;;4851004;29;90730;-81
2023/07/01 14:13:17;;;;;;;6.47;0.57;;;23.30;73.40;;;;;;4839804;29;88169;-80
2023/07/01 14:15:53;;;;;;;2.58;0.40;;;23.20;72.30;;;;;;4855897;29;87770;-80
2023/07/01 14:18:18;;;;;;;0.73;0.45;;;23.10;74.50;;;;;;4856686;29;87274;-80
2023/07/01 14:20:56;;;;;;;1.25;0.40;;;23.10;74.60;;;;;;4839607;29;88810;-80
2023/07/01 14:23:34;;;;;;;1.10;0.47;;;23.20;74.10;;;;;;4856212;28;91589;-80
2023/07/01 14:26:00;;;;;;;0.75;0.50;;;23.10;74.70;;;;;;4788977;29;90020;-81
2023/07/01 14:28:26;;;;;;;1.30;0.40;;;23.10;75.30;;;;;;4852752;29;87209;-80
2023/07/01 14:31:07;;;;;;;0.70;0.40;;;23.10;74.90;;;;;;4858125;29;87299;-81
2023/07/01 14:33:50;;;;;;;2.00;0.50;;;23.10;75.60;;;;;;4843885;29;90424;-81
2023/07/01 14:36:19;;;;;;;;;;;23.10;76.10;;;;;;4848196;29;88833;-80
2023/07/01 14:38:46;;;;;;;0.85;0.40;;;23.20;76.90;;;;;;4863948;28;87125;-81
2023/07/01 14:41:21;;;;;;;0.70;0.40;;;23.20;75.00;;;;;;4855477;29;88117;-82
2023/07/01 14:43:55;;;;;;;1.17;0.30;;;23.20;75.00;;;;;;4853624;29;90395;-81
2023/07/01 14:46:21;;;;;;;0.90;0.63;;;23.20;73.70;;;;;;4847929;28;89519;-80
2023/07/01 14:48:48;;;;;;;1.17;0.50;;;23.20;75.10;;;;;;4843856;29;89284;-82
2023/07/01 14:51:14;;;;;;;7.35;1.27;;;23.00;74.60;;;;;;4843592;29;88546;-81
2023/07/01 14:53:41;;;;;;;0.85;0.40;;;23.00;75.40;;;;;;4838312;29;89373;-80
2023/07/01 14:56:07;;;;;;;3.63;0.73;;;22.90;76.10;;;;;;4854673;29;88252;-80
2023/07/01 14:58:39;;;;;;;2.67;0.50;;;22.80;77.60;;;;;;4835223;29;87416;-81
2023/07/01 15:01:07;;;;;;;1.87;0.80;;;22.70;77.60;;;;;;4857358;29;90901;-82
2023/07/01 15:03:34;;;;;;;1.13;0.50;;;22.60;77.70;;;;;;4854491;28;88838;-81
2023/07/01 15:06:00;;;;;;;1.55;0.50;;;22.60;78.40;;;;;;4850480;28;88338;-82
2023/07/01 15:08:28;;;;;;;2.38;0.73;;;22.60;77.30;;;;;;4831327;29;87821;-82
2023/07/01 15:10:54;;;;;;;1.73;0.52;;;22.60;78.10;;;;;;4847889;29;87814;-81
2023/07/01 15:13:19;;;;;;;0.73;0.50;;;22.60;79.90;;;;;;4843819;29;90220;-82
2023/07/01 15:15:46;;;;;;;1.25;0.43;;;22.60;79.00;;;;;;4843756;29;89671;-82
2023/07/01 15:18:12;;;;;;;1.20;0.40;;;22.70;80.20;;;;;;4873969;23;87623;-82
2023/07/01 15:20:38;;;;;;;1.77;0.50;;;22.90;79.80;;;;;;4825759;29;87289;-84
2023/07/01 15:23:04;;;;;;;1.50;0.60;;;23.20;77.70;;;;;;4823322;29;87670;-82
2023/07/01 15:25:29;;;;;;;2.22;0.65;;;23.30;75.40;;;;;;4823681;29;88043;-83
2023/07/01 15:27:55;;;;;;;0.98;0.45;;;23.40;76.00;;;;;;4830380;29;87681;-82
2023/07/01 15:30:20;;;;;;;1.17;0.35;;;23.60;75.50;;;;;;4861971;29;87623;-80
2023/07/01 15:32:46;;;;;;;2.65;0.60;;;23.70;73.20;;;;;;4845664;29;89297;-82
2023/07/01 15:35:12;;;;;;;0.73;0.47;;;23.70;73.20;;;;;;4860968;28;87937;-82
2023/07/01 15:37:37;;;;;;;3.00;0.70;;;23.70;73.70;;;;;;4860458;29;88456;-82
2023/07/01 15:40:03;;;;;;;2.85;0.60;;;23.70;72.20;;;;;;4860774;29;88401;-82
2023/07/01 15:42:29;;;;;;;1.40;0.40;;;23.60;70.10;;;;;;4861556;28;89005;-80
2023/07/01 15:44:55;;;;;;;1.42;0.50;;;23.50;70.10;;;;;;4863153;28;88437;-80
2023/07/01 15:47:22;;;;;;;0.95;0.57;;;23.30;70.30;;;;;;4864413;29;87791;-81
2023/07/01 15:49:47;;;;;;;4.50;0.70;;;23.20;72.80;;;;;;4848182;29;90029;-81
2023/07/01 15:52:13;;;;;;;2.75;0.45;;;23.20;73.80;;;;;;4861334;29;93046;-81
2023/07/01 15:54:39;;;;;;;1.30;0.43;;;23.20;71.00;;;;;;4862127;29;87873;-80
2023/07/01 15:57:05;;;;;;;3.22;0.40;;;23.10;69.00;;;;;;4864451;28;87672;-80
2023/07/01 15:59:31;;;;;;;3.03;0.43;;;23.00;69.30;;;;;;4867904;29;88423;-79